createdAt,value
2023-02-07T00:00:13.238Z,79.50
2023-02-07T00:03:14.879Z,79.70
2023-02-07T00:06:21.899Z,80.00
2023-02-07T00:09:23.541Z,80.10
2023-02-07T00:12:25.190Z,80.30
2023-02-07T00:15:27.441Z,80.30
2023-02-07T00:18:29.005Z,80.50
2023-02-07T00:21:31.153Z,80.70
2023-02-07T00:24:32.814Z,80.70
2023-02-07T00:27:34.445Z,80.80
2023-02-07T00:30:36.080Z,81.10
2023-02-07T00:33:39.546Z,81.70
2023-02-07T00:36:41.888Z,82.20
2023-02-07T00:39:43.524Z,82.60
2023-02-07T00:42:45.106Z,82.60
2023-02-07T00:45:47.433Z,82.60
2023-02-07T00:48:49.138Z,82.40
2023-02-07T00:51:51.126Z,82.40
2023-02-07T00:54:52.736Z,82.20
2023-02-07T00:57:54.322Z,82.30
2023-02-07T01:00:55.984Z,82.60
2023-02-07T01:03:57.982Z,82.60
2023-02-07T01:06:59.621Z,82.80
2023-02-07T01:10:01.459Z,82.80
2023-02-07T01:13:03.088Z,82.70
2023-02-07T01:16:05.208Z,82.70
2023-02-07T01:19:09.031Z,82.30
2023-02-07T01:22:10.712Z,82.20
2023-02-07T01:25:12.354Z,82.10
2023-02-07T01:28:15.057Z,82.10
2023-02-07T01:31:17.015Z,82.20
2023-02-07T01:34:18.899Z,82.10
2023-02-07T01:37:20.512Z,81.80
2023-02-07T01:40:22.134Z,81.60
2023-02-07T01:43:25.588Z,81.60
2023-02-07T01:46:29.098Z,81.60
2023-02-07T01:49:34.960Z,81.60
2023-02-07T01:52:41.735Z,81.60
2023-02-07T01:55:45.790Z,81.70
2023-02-07T01:58:47.546Z,81.90
2023-02-07T02:01:49.215Z,82.10
2023-02-07T02:04:54.432Z,82.10
2023-02-07T02:07:56.409Z,82.10
2023-02-07T02:11:18.959Z,82.20
2023-02-07T02:14:58.415Z,82.20
2023-02-07T02:18:10.031Z,82.30
2023-02-07T02:22:05.095Z,82.30
2023-02-07T02:25:30.318Z,82.20
2023-02-07T02:29:00.175Z,81.90
2023-02-07T02:32:38.619Z,81.50
2023-02-07T02:36:30.354Z,81.40
2023-02-07T02:39:42.794Z,81.30
2023-02-07T02:42:58.606Z,81.50
2023-02-07T02:46:09.967Z,81.40
2023-02-07T02:49:14.850Z,81.60
2023-02-07T02:52:16.499Z,80.80
2023-02-07T02:55:41.046Z,80.10
2023-02-07T02:58:53.138Z,79.30
2023-02-07T03:02:05.244Z,78.80
2023-02-07T03:05:06.867Z,77.70
2023-02-07T03:08:34.836Z,76.00
2023-02-07T03:11:49.123Z,76.20
2023-02-07T03:15:14.959Z,75.30
2023-02-07T03:18:28.982Z,74.00
2023-02-07T03:21:56.799Z,73.80
2023-02-07T03:25:01.567Z,74.10
2023-02-07T03:28:05.751Z,73.70
2023-02-07T03:31:10.566Z,73.50
2023-02-07T03:34:16.766Z,73.50
2023-02-07T03:37:50.090Z,73.50
2023-02-07T03:40:58.185Z,73.60
2023-02-07T03:44:01.116Z,73.70
2023-02-07T03:47:03.699Z,73.70
2023-02-07T03:50:05.780Z,73.30
2023-02-07T03:53:07.499Z,73.60
2023-02-07T03:56:09.072Z,73.90
2023-02-07T03:59:10.753Z,74.00
2023-02-07T04:02:12.568Z,74.20
2023-02-07T04:05:14.188Z,74.30
2023-02-07T04:08:15.889Z,74.40
2023-02-07T04:11:17.580Z,74.60
2023-02-07T04:14:22.301Z,75.00
2023-02-07T04:17:23.880Z,74.80
2023-02-07T04:20:25.469Z,74.60
2023-02-07T04:23:27.149Z,74.70
2023-02-07T04:26:28.831Z,74.80
2023-02-07T04:29:30.409Z,75.00
2023-02-07T04:32:32.003Z,75.00
2023-02-07T04:35:33.613Z,75.00
2023-02-07T04:38:35.224Z,75.40
2023-02-07T04:41:36.904Z,75.70
2023-02-07T04:44:38.728Z,75.90
2023-02-07T04:47:40.359Z,76.10
2023-02-07T04:50:42.007Z,76.40
2023-02-07T04:53:43.729Z,76.60
2023-02-07T04:56:45.461Z,77.00
2023-02-07T04:59:47.038Z,77.40
2023-02-07T05:02:48.628Z,77.90
2023-02-07T05:05:53.775Z,78.30
2023-02-07T05:08:55.330Z,78.60
2023-02-07T05:11:57.008Z,78.60
2023-02-07T05:14:59.395Z,78.70
2023-02-07T05:18:01.484Z,78.70
2023-02-07T05:21:03.109Z,78.70
2023-02-07T05:24:04.956Z,78.50
2023-02-07T05:27:06.660Z,78.50
2023-02-07T05:30:08.944Z,78.50
2023-02-07T05:33:11.411Z,78.50
2023-02-07T05:36:12.952Z,78.50
2023-02-07T05:39:14.545Z,78.40
2023-02-07T05:42:16.221Z,78.90
2023-02-07T05:45:18.131Z,79.60
2023-02-07T05:48:19.788Z,80.20
2023-02-07T05:51:21.492Z,80.80
2023-02-07T05:54:23.229Z,81.00
2023-02-07T05:57:24.914Z,81.30
2023-02-07T06:00:26.585Z,81.50
2023-02-07T06:03:28.205Z,81.40
2023-02-07T06:06:32.096Z,81.50
2023-02-07T06:09:33.854Z,81.30
2023-02-07T06:12:35.556Z,81.10
2023-02-07T06:15:37.806Z,81.00
2023-02-07T06:18:39.603Z,80.80
2023-02-07T06:21:46.781Z,80.90
2023-02-07T06:24:48.608Z,81.10
2023-02-07T06:27:50.255Z,81.30
2023-02-07T06:30:53.400Z,81.60
2023-02-07T06:33:55.105Z,81.70
2023-02-07T06:36:56.880Z,81.60
2023-02-07T06:39:58.731Z,81.60
2023-02-07T06:43:00.348Z,81.60
2023-02-07T06:46:02.048Z,81.60
2023-02-07T06:49:14.053Z,81.80
2023-02-07T06:52:16.339Z,81.80
2023-02-07T06:55:18.242Z,81.90
2023-02-07T06:58:19.852Z,81.90
2023-02-07T07:01:22.338Z,81.80
2023-02-07T07:04:23.955Z,81.80
2023-02-07T07:07:25.706Z,81.90
2023-02-07T07:10:27.666Z,81.80
2023-02-07T07:13:30.806Z,81.90
2023-02-07T07:16:32.543Z,81.90
2023-02-07T07:19:34.164Z,82.20
2023-02-07T07:22:35.788Z,82.10
2023-02-07T07:25:37.848Z,81.90
2023-02-07T07:28:39.739Z,82.00
2023-02-07T07:31:41.558Z,82.00
2023-02-07T07:34:43.205Z,81.70
2023-02-07T07:37:44.941Z,81.40
2023-02-07T07:40:46.518Z,81.60
2023-02-07T07:43:48.188Z,81.60
2023-02-07T07:46:50.370Z,81.30
2023-02-07T07:49:52.030Z,81.10
2023-02-07T07:52:53.638Z,80.90
2023-02-07T07:55:58.821Z,80.70
2023-02-07T07:59:05.733Z,80.20
2023-02-07T08:02:16.266Z,79.80
2023-02-07T08:05:21.074Z,79.30
2023-02-07T08:08:22.723Z,79.20
2023-02-07T08:11:24.988Z,78.40
2023-02-07T08:14:26.673Z,78.20
2023-02-07T08:17:28.399Z,77.40
2023-02-07T08:20:30.056Z,77.30
2023-02-07T08:23:31.900Z,76.60
2023-02-07T08:26:33.520Z,75.80
2023-02-07T08:29:35.215Z,75.40
2023-02-07T08:32:37.000Z,75.40
2023-02-07T08:35:40.918Z,74.60
2023-02-07T08:38:42.521Z,74.00
2023-02-07T08:41:44.329Z,73.90
2023-02-07T08:44:46.941Z,73.70
2023-02-07T08:47:50.275Z,72.50
2023-02-07T08:50:52.200Z,72.90
2023-02-07T08:53:54.132Z,72.50
2023-02-07T08:56:55.986Z,71.90
2023-02-07T08:59:58.157Z,71.80
2023-02-07T09:02:59.968Z,72.00
2023-02-07T09:06:01.591Z,71.50
2023-02-07T09:09:03.574Z,71.40
2023-02-07T09:12:09.776Z,70.10
2023-02-07T09:15:11.430Z,69.70
2023-02-07T09:18:13.056Z,70.00
2023-02-07T09:21:15.018Z,68.80
2023-02-07T09:24:16.655Z,68.40
2023-02-07T09:27:18.248Z,68.30
2023-02-07T09:30:20.028Z,68.50
2023-02-07T09:33:24.620Z,67.50
2023-02-07T09:36:28.640Z,67.30
2023-02-07T09:39:31.910Z,67.20
2023-02-07T09:43:21.524Z,66.80
2023-02-07T09:46:33.052Z,66.60
2023-02-07T09:49:47.633Z,66.50
2023-02-07T09:53:10.941Z,66.00
2023-02-07T09:56:17.654Z,65.90
2023-02-07T09:59:41.766Z,64.70
2023-02-07T10:02:55.549Z,64.00
2023-02-07T10:06:17.719Z,63.10
2023-02-07T10:09:37.621Z,63.20
2023-02-07T10:12:55.605Z,63.70
2023-02-07T10:16:25.294Z,61.70
2023-02-07T10:19:54.478Z,62.20
2023-02-07T10:23:07.648Z,62.60
2023-02-07T10:26:20.591Z,62.40
2023-02-07T10:29:47.962Z,61.00
2023-02-07T10:32:51.999Z,60.60
2023-02-07T10:35:54.354Z,60.80
2023-02-07T10:39:11.376Z,61.10
2023-02-07T10:42:16.491Z,60.20
2023-02-07T10:45:19.757Z,59.60
2023-02-07T10:48:21.338Z,59.90
2023-02-07T10:51:41.599Z,59.80
2023-02-07T10:55:10.587Z,59.20
2023-02-07T10:58:24.048Z,58.40
2023-02-07T11:01:28.817Z,57.80
2023-02-07T11:04:36.651Z,58.20
2023-02-07T11:07:47.520Z,57.70
2023-02-07T11:10:51.790Z,58.00
2023-02-07T11:13:55.248Z,57.40
2023-02-07T11:16:58.970Z,57.50
2023-02-07T11:20:07.837Z,57.00
2023-02-07T11:23:14.900Z,56.20
2023-02-07T11:26:19.294Z,55.30
2023-02-07T11:29:24.246Z,53.60
2023-02-07T11:32:28.120Z,54.40
2023-02-07T11:35:29.908Z,54.00
2023-02-07T11:38:37.234Z,54.20
2023-02-07T11:41:39.144Z,54.00
2023-02-07T11:44:43.002Z,54.10
2023-02-07T11:47:48.536Z,52.90
2023-02-07T11:50:55.456Z,53.60
2023-02-07T11:54:03.100Z,53.60
2023-02-07T11:57:16.518Z,53.40
2023-02-07T12:00:26.285Z,52.50
2023-02-07T12:03:33.405Z,51.80
2023-02-07T12:06:41.133Z,52.40
2023-02-07T12:09:45.747Z,51.70
2023-02-07T12:13:05.892Z,51.70
2023-02-07T12:16:23.004Z,51.70
2023-02-07T12:19:30.946Z,51.50
2023-02-07T12:23:16.353Z,51.10
2023-02-07T12:26:44.895Z,50.50
2023-02-07T12:29:49.280Z,50.60
2023-02-07T12:32:57.707Z,50.50
2023-02-07T12:36:10.308Z,50.70
2023-02-07T12:39:20.264Z,49.90
2023-02-07T12:42:41.868Z,50.60
2023-02-07T12:45:58.418Z,50.00
2023-02-07T12:49:08.358Z,50.40
2023-02-07T12:52:31.221Z,50.00
2023-02-07T12:56:04.591Z,50.00
2023-02-07T12:59:30.506Z,50.20
2023-02-07T13:03:03.467Z,48.80
2023-02-07T13:06:25.427Z,49.60
2023-02-07T13:09:33.017Z,48.50
2023-02-07T13:12:45.827Z,48.20
2023-02-07T13:16:18.422Z,48.30
2023-02-07T13:19:33.670Z,48.20
2023-02-07T13:22:53.757Z,47.90
2023-02-07T13:26:01.242Z,47.70
2023-02-07T13:29:07.067Z,47.80
2023-02-07T13:32:15.297Z,47.50
2023-02-07T13:35:29.911Z,46.50
2023-02-07T13:39:02.660Z,46.70
2023-02-07T13:42:25.590Z,45.00
2023-02-07T13:45:51.083Z,45.30
2023-02-07T13:49:08.011Z,46.60
2023-02-07T13:52:12.264Z,45.00
2023-02-07T13:55:30.607Z,43.00
2023-02-07T13:58:53.969Z,42.80
2023-02-07T14:01:59.850Z,42.70
2023-02-07T14:05:09.650Z,43.00
2023-02-07T14:08:17.379Z,40.90
2023-02-07T14:11:25.585Z,40.90
2023-02-07T14:14:30.126Z,40.60
2023-02-07T14:17:31.697Z,40.70
2023-02-07T14:20:36.412Z,40.70
2023-02-07T14:24:01.504Z,41.00
2023-02-07T14:27:04.439Z,41.20
2023-02-07T14:30:12.018Z,40.60
2023-02-07T14:33:17.706Z,40.50
2023-02-07T14:36:23.747Z,39.30
2023-02-07T14:39:31.840Z,39.50
2023-02-07T14:42:33.783Z,40.10
2023-02-07T14:45:37.635Z,39.80
2023-02-07T14:49:01.172Z,40.10
2023-02-07T14:52:08.109Z,39.60
2023-02-07T14:55:20.843Z,40.30
2023-02-07T14:58:36.430Z,40.70
2023-02-07T15:01:38.059Z,39.40
2023-02-07T15:04:43.537Z,40.20
2023-02-07T15:07:48.795Z,39.00
2023-02-07T15:10:56.378Z,38.90
2023-02-07T15:14:02.578Z,39.10
2023-02-07T15:17:05.196Z,39.50
2023-02-07T15:20:07.280Z,40.10
2023-02-07T15:23:13.798Z,40.40
2023-02-07T15:26:19.027Z,40.20
2023-02-07T15:29:25.522Z,40.10
2023-02-07T15:32:31.009Z,40.00
2023-02-07T15:35:39.420Z,39.90
2023-02-07T15:38:41.356Z,40.40
2023-02-07T15:41:46.053Z,40.40
2023-02-07T15:44:57.342Z,40.60
2023-02-07T15:48:09.473Z,41.50
2023-02-07T15:51:12.953Z,41.50
2023-02-07T15:54:17.042Z,41.50
2023-02-07T15:57:35.687Z,41.90
2023-02-07T16:00:41.452Z,41.40
2023-02-07T16:03:45.904Z,41.80
2023-02-07T16:06:58.412Z,42.10
2023-02-07T16:10:33.054Z,42.20
2023-02-07T16:13:34.872Z,42.90
2023-02-07T16:16:56.862Z,43.20
2023-02-07T16:19:58.746Z,43.60
2023-02-07T16:23:03.262Z,43.60
2023-02-07T16:26:05.207Z,43.90
2023-02-07T16:29:07.360Z,44.10
2023-02-07T16:32:13.745Z,44.70
2023-02-07T16:35:22.142Z,44.80
2023-02-07T16:38:23.806Z,45.40
2023-02-07T16:41:31.412Z,45.90
2023-02-07T16:44:35.459Z,46.10
2023-02-07T16:47:37.283Z,46.30
2023-02-07T16:50:40.036Z,46.80
2023-02-07T16:53:43.268Z,47.20
2023-02-07T16:56:46.893Z,47.30
2023-02-07T16:59:48.615Z,47.40
2023-02-07T17:02:51.191Z,47.40
2023-02-07T17:05:55.799Z,47.50
2023-02-07T17:08:57.647Z,48.00
2023-02-07T17:11:59.296Z,48.20
2023-02-07T17:15:01.657Z,48.60
2023-02-07T17:18:03.507Z,49.00
2023-02-07T17:21:05.383Z,49.40
2023-02-07T17:24:07.679Z,49.80
2023-02-07T17:27:10.735Z,49.80
2023-02-07T17:30:24.688Z,49.70
2023-02-07T17:33:26.242Z,50.40
2023-02-07T17:36:28.930Z,50.30
2023-02-07T17:39:30.504Z,51.00
2023-02-07T17:42:32.361Z,50.60
2023-02-07T17:45:36.594Z,50.90
2023-02-07T17:48:38.211Z,50.90
2023-02-07T17:51:39.795Z,50.80
2023-02-07T17:54:42.877Z,51.10
2023-02-07T17:57:44.831Z,51.40
2023-02-07T18:00:46.470Z,52.00
2023-02-07T18:03:50.188Z,52.20
2023-02-07T18:06:51.843Z,52.50
2023-02-07T18:09:53.472Z,52.70
2023-02-07T18:12:55.614Z,52.90
2023-02-07T18:15:58.271Z,53.50
2023-02-07T18:18:59.885Z,54.10
2023-02-07T18:22:01.547Z,54.90
2023-02-07T18:25:03.323Z,55.40
2023-02-07T18:28:05.043Z,56.30
2023-02-07T18:31:20.226Z,57.40
2023-02-07T18:34:21.891Z,58.60
2023-02-07T18:37:23.519Z,59.30
2023-02-07T18:40:28.453Z,59.80
2023-02-07T18:43:30.046Z,60.40
2023-02-07T18:46:32.021Z,61.00
2023-02-07T18:49:34.661Z,61.50
2023-02-07T18:52:36.490Z,61.40
2023-02-07T18:55:38.182Z,61.40
2023-02-07T18:58:39.984Z,61.30
2023-02-07T19:01:41.711Z,61.80
2023-02-07T19:04:43.446Z,61.40
2023-02-07T19:07:45.008Z,61.60
2023-02-07T19:10:53.527Z,61.50
2023-02-07T19:13:55.171Z,61.40
2023-02-07T19:16:57.521Z,61.70
2023-02-07T19:19:59.323Z,61.70
2023-02-07T19:23:00.959Z,61.30
2023-02-07T19:26:03.626Z,61.90
2023-02-07T19:29:05.954Z,62.10
2023-02-07T19:32:09.405Z,61.80
2023-02-07T19:35:11.133Z,62.30
2023-02-07T19:38:16.708Z,62.60
2023-02-07T19:41:19.440Z,63.00
2023-02-07T19:44:21.310Z,63.50
2023-02-07T19:47:22.911Z,62.90
2023-02-07T19:50:26.106Z,63.00
2023-02-07T19:53:28.565Z,63.00
2023-02-07T19:56:33.196Z,62.90
2023-02-07T19:59:34.851Z,63.00
2023-02-07T20:02:36.922Z,63.00
2023-02-07T20:05:46.126Z,62.90
2023-02-07T20:08:48.253Z,63.30
2023-02-07T20:11:50.063Z,63.40
2023-02-07T20:14:51.800Z,63.80
2023-02-07T20:17:56.684Z,63.80
2023-02-07T20:21:09.977Z,63.50
2023-02-07T20:24:12.972Z,63.20
2023-02-07T20:27:14.776Z,63.80
2023-02-07T20:30:17.061Z,64.90
2023-02-07T20:33:18.671Z,65.00
2023-02-07T20:36:21.251Z,65.70
2023-02-07T20:39:23.262Z,66.20
2023-02-07T20:42:24.846Z,66.40
2023-02-07T20:45:26.491Z,66.60
2023-02-07T20:48:28.300Z,66.80
2023-02-07T20:51:33.501Z,66.90
2023-02-07T20:54:35.149Z,67.00
2023-02-07T20:57:36.700Z,66.90
2023-02-07T21:00:38.557Z,66.70
2023-02-07T21:03:41.100Z,66.20
2023-02-07T21:06:43.777Z,65.90
2023-02-07T21:09:45.838Z,65.70
2023-02-07T21:12:47.695Z,65.90
2023-02-07T21:16:02.318Z,66.30
2023-02-07T21:19:04.517Z,66.70
2023-02-07T21:22:06.776Z,67.40
2023-02-07T21:25:08.505Z,67.70
2023-02-07T21:28:10.810Z,68.30
2023-02-07T21:31:17.740Z,68.70
2023-02-07T21:34:21.290Z,69.00
2023-02-07T21:37:23.826Z,68.90
2023-02-07T21:40:28.742Z,69.40
2023-02-07T21:43:30.604Z,69.70
2023-02-07T21:46:38.622Z,70.50
2023-02-07T21:49:40.303Z,71.10
2023-02-07T21:52:49.050Z,71.40
2023-02-07T21:55:50.925Z,71.70
2023-02-07T21:59:07.051Z,71.80
2023-02-07T22:02:11.801Z,71.40
2023-02-07T22:05:13.516Z,71.10
2023-02-07T22:08:15.051Z,70.90
2023-02-07T22:11:18.292Z,70.80
2023-02-07T22:14:21.008Z,71.10
2023-02-07T22:17:23.399Z,71.60
2023-02-07T22:20:24.971Z,71.70
2023-02-07T22:23:26.507Z,72.30
2023-02-07T22:26:29.241Z,72.80
2023-02-07T22:29:35.996Z,73.00
2023-02-07T22:32:37.908Z,73.30
2023-02-07T22:35:41.972Z,73.60
2023-02-07T22:38:44.089Z,73.90
2023-02-07T22:41:46.512Z,73.90
2023-02-07T22:44:48.309Z,74.10
2023-02-07T22:47:50.079Z,74.20
2023-02-07T22:50:52.004Z,74.30
2023-02-07T22:53:56.799Z,74.30
2023-02-07T22:56:59.709Z,74.40
2023-02-07T23:00:01.330Z,74.70
2023-02-07T23:03:02.920Z,74.50
2023-02-07T23:06:05.161Z,74.50
2023-02-07T23:09:07.017Z,73.90
2023-02-07T23:12:08.761Z,73.60
2023-02-07T23:15:10.917Z,73.20
2023-02-07T23:18:15.460Z,73.00
2023-02-07T23:21:20.001Z,72.70
2023-02-07T23:24:21.594Z,72.30
2023-02-07T23:27:23.299Z,71.90
2023-02-07T23:30:24.995Z,71.50
2023-02-07T23:33:26.622Z,71.20
2023-02-07T23:36:28.553Z,71.10
2023-02-07T23:39:30.524Z,71.40
2023-02-07T23:42:32.123Z,71.20
2023-02-07T23:45:34.044Z,71.10
2023-02-07T23:48:38.394Z,71.20
2023-02-07T23:51:40.435Z,71.20
2023-02-07T23:54:42.026Z,71.20
2023-02-07T23:57:43.644Z,71.20
